createdAt,value
2017-07-22T00:00:05.377Z,62.20
2017-07-22T00:00:11.977Z,62.20
2017-07-22T00:00:16.279Z,62.20
2017-07-22T00:00:20.574Z,62.20
2017-07-22T00:00:24.828Z,62.20
2017-07-22T00:00:29.113Z,62.20
2017-07-22T00:00:33.351Z,62.20
2017-07-22T00:00:37.611Z,62.20
2017-07-22T00:00:41.851Z,62.20
2017-07-22T00:00:46.117Z,62.10
2017-07-22T00:00:50.469Z,62.20
2017-07-22T00:00:54.705Z,62.20
2017-07-22T00:00:58.966Z,62.20
2017-07-22T00:01:03.193Z,62.20
2017-07-22T00:01:07.455Z,62.20
2017-07-22T00:01:11.753Z,62.20
2017-07-22T00:01:16.060Z,62.20
2017-07-22T00:01:20.432Z,62.20
2017-07-22T00:01:24.683Z,62.20
2017-07-22T00:01:28.938Z,62.20
2017-07-22T00:01:33.233Z,62.20
2017-07-22T00:01:37.548Z,62.20
2017-07-22T00:01:41.830Z,62.20
2017-07-22T00:01:46.086Z,62.20
2017-07-22T00:01:50.380Z,62.20
2017-07-22T00:01:54.635Z,62.20
2017-07-22T00:01:58.905Z,62.20
2017-07-22T00:02:03.189Z,62.20
2017-07-22T00:02:07.429Z,62.20
2017-07-22T00:02:27.738Z,62.20
2017-07-22T00:02:40.172Z,62.20
2017-07-22T00:02:44.595Z,62.30
2017-07-22T00:02:48.853Z,62.20
2017-07-22T00:02:53.095Z,62.20
2017-07-22T00:02:57.422Z,62.20
2017-07-22T00:03:01.745Z,62.30
2017-07-22T00:03:06.006Z,62.30
2017-07-22T00:03:22.805Z,62.50
2017-07-22T00:03:39.586Z,62.40
2017-07-22T00:03:43.882Z,62.20
2017-07-22T00:03:48.229Z,62.20
2017-07-22T00:03:52.512Z,62.20
2017-07-22T00:03:56.784Z,62.20
2017-07-22T00:04:01.021Z,62.20
2017-07-22T00:04:05.288Z,62.20
2017-07-22T00:04:09.531Z,62.20
2017-07-22T00:04:13.791Z,62.20
2017-07-22T00:04:18.032Z,62.20
2017-07-22T00:04:22.469Z,62.20
2017-07-22T00:04:27.042Z,62.20
2017-07-22T00:04:31.475Z,62.20
2017-07-22T00:04:35.744Z,62.20
2017-07-22T00:04:40.419Z,62.20
2017-07-22T00:04:45.994Z,62.20
2017-07-22T00:04:51.213Z,62.20
2017-07-22T00:04:58.613Z,62.20
2017-07-22T00:05:04.671Z,62.20
2017-07-22T00:05:09.964Z,62.20
2017-07-22T00:05:14.931Z,62.20
2017-07-22T00:05:20.536Z,62.20
2017-07-22T00:05:28.612Z,62.20
2017-07-22T00:05:33.746Z,62.20
2017-07-22T00:05:39.529Z,62.20
2017-07-22T00:05:52.340Z,62.20
2017-07-22T00:06:06.088Z,62.20
2017-07-22T00:06:12.534Z,62.20
2017-07-22T00:06:18.955Z,62.20
2017-07-22T00:06:40.428Z,62.20
2017-07-22T00:06:44.692Z,62.20
2017-07-22T00:06:48.961Z,62.20
2017-07-22T00:06:53.266Z,62.20
2017-07-22T00:06:57.524Z,62.20
2017-07-22T00:07:01.799Z,62.20
2017-07-22T00:07:06.075Z,62.20
2017-07-22T00:07:10.310Z,62.20
2017-07-22T00:07:14.599Z,62.20
2017-07-22T00:07:18.833Z,62.10
2017-07-22T00:07:23.078Z,62.20
2017-07-22T00:07:27.377Z,62.20
2017-07-22T00:07:31.681Z,62.20
2017-07-22T00:07:35.923Z,62.20
2017-07-22T00:07:40.171Z,62.20
2017-07-22T00:07:44.472Z,62.20
2017-07-22T00:07:48.704Z,62.20
2017-07-22T00:07:52.934Z,62.20
2017-07-22T00:07:57.179Z,62.20
2017-07-22T00:08:01.418Z,62.20
2017-07-22T00:08:05.676Z,62.20
2017-07-22T00:08:10.007Z,62.20
2017-07-22T00:08:14.255Z,62.20
2017-07-22T00:08:18.473Z,62.20
2017-07-22T00:08:22.707Z,62.20
2017-07-22T00:08:27.009Z,62.20
2017-07-22T00:08:31.236Z,62.20
2017-07-22T00:08:35.505Z,62.20
2017-07-22T00:08:39.823Z,62.30
2017-07-22T00:08:44.120Z,62.30
2017-07-22T00:08:48.504Z,62.30
2017-07-22T00:08:52.840Z,62.30
2017-07-22T00:08:57.225Z,62.30
2017-07-22T00:09:01.477Z,62.30
2017-07-22T00:09:05.756Z,63.00
2017-07-22T00:09:10.027Z,62.30
2017-07-22T00:09:14.286Z,62.30
2017-07-22T00:09:18.529Z,62.30
2017-07-22T00:09:22.766Z,62.20
2017-07-22T00:09:27.059Z,62.20
2017-07-22T00:09:31.310Z,62.20
2017-07-22T00:09:35.737Z,62.20
2017-07-22T00:09:40.023Z,62.20
2017-07-22T00:09:44.264Z,62.20
2017-07-22T00:09:48.510Z,62.20
2017-07-22T00:09:52.765Z,62.20
2017-07-22T00:09:57.043Z,62.30
2017-07-22T00:10:01.284Z,62.30
2017-07-22T00:10:05.524Z,62.30
2017-07-22T00:10:09.792Z,62.30
2017-07-22T00:10:14.043Z,62.30
2017-07-22T00:10:18.303Z,62.40
2017-07-22T00:10:22.590Z,62.40
2017-07-22T00:10:26.889Z,62.40
2017-07-22T00:10:31.122Z,62.40
2017-07-22T00:10:35.356Z,62.40
2017-07-22T00:10:39.626Z,62.40
2017-07-22T00:10:43.896Z,62.30
2017-07-22T00:10:48.151Z,62.30
2017-07-22T00:10:52.385Z,62.30
2017-07-22T00:10:56.636Z,62.30
2017-07-22T00:11:00.947Z,62.30
2017-07-22T00:11:05.199Z,62.30
2017-07-22T00:11:09.451Z,62.30
2017-07-22T00:11:13.682Z,62.30
2017-07-22T00:11:17.934Z,62.30
2017-07-22T00:11:22.166Z,62.30
2017-07-22T00:11:26.400Z,62.30
2017-07-22T00:11:30.652Z,62.20
2017-07-22T00:11:34.968Z,62.20
2017-07-22T00:11:39.207Z,62.20
2017-07-22T00:11:55.710Z,62.20
2017-07-22T00:12:09.152Z,62.20
2017-07-22T00:12:13.504Z,62.20
2017-07-22T00:12:17.791Z,62.20
2017-07-22T00:12:22.123Z,62.30
2017-07-22T00:12:26.417Z,62.30
2017-07-22T00:12:30.687Z,62.30
2017-07-22T00:12:34.938Z,62.30
2017-07-22T00:12:39.227Z,62.30
2017-07-22T00:12:43.540Z,62.30
2017-07-22T00:12:47.830Z,62.40
2017-07-22T00:12:52.081Z,62.30
2017-07-22T00:12:56.387Z,62.30
2017-07-22T00:13:00.641Z,62.30
2017-07-22T00:13:04.998Z,62.30
2017-07-22T00:13:09.319Z,62.30
2017-07-22T00:13:13.717Z,62.30
2017-07-22T00:13:17.995Z,62.30
2017-07-22T00:13:22.265Z,62.30
2017-07-22T00:13:26.589Z,62.30
2017-07-22T00:13:30.855Z,62.30
2017-07-22T00:13:35.216Z,62.30
2017-07-22T00:13:39.487Z,62.30
2017-07-22T00:13:43.821Z,62.30
2017-07-22T00:13:48.134Z,62.30
2017-07-22T00:13:52.410Z,62.30
2017-07-22T00:13:56.770Z,62.30
2017-07-22T00:14:01.078Z,62.30
2017-07-22T00:14:05.365Z,62.30
2017-07-22T00:14:09.704Z,62.30
2017-07-22T00:14:14.033Z,62.30
2017-07-22T00:14:18.308Z,62.30
2017-07-22T00:14:22.557Z,62.30
2017-07-22T00:14:26.935Z,62.30
2017-07-22T00:14:31.163Z,62.30
2017-07-22T00:14:35.462Z,62.30
2017-07-22T00:14:39.818Z,62.30
2017-07-22T00:14:44.149Z,62.20
2017-07-22T00:14:48.443Z,62.20
2017-07-22T00:14:52.733Z,62.20
2017-07-22T00:14:57.059Z,62.20
2017-07-22T00:15:01.352Z,62.20
2017-07-22T00:15:05.648Z,62.20
2017-07-22T00:15:18.074Z,62.20
2017-07-22T00:15:38.685Z,62.20
2017-07-22T00:15:43.188Z,62.20
2017-07-22T00:15:47.488Z,62.20
2017-07-22T00:15:51.760Z,62.30
2017-07-22T00:15:56.016Z,62.40
2017-07-22T00:16:00.294Z,62.40
2017-07-22T00:16:04.705Z,62.40
2017-07-22T00:16:08.945Z,62.40
2017-07-22T00:16:13.258Z,62.40
2017-07-22T00:16:17.499Z,62.40
2017-07-22T00:16:21.774Z,62.40
2017-07-22T00:16:26.051Z,62.40
2017-07-22T00:16:30.374Z,62.40
2017-07-22T00:16:34.658Z,62.40
2017-07-22T00:20:26.223Z,62.40
2017-07-22T00:20:30.461Z,62.50
2017-07-22T00:20:34.692Z,62.50
2017-07-22T00:20:38.946Z,62.60
2017-07-22T00:20:43.965Z,62.60
2017-07-22T00:20:48.190Z,62.60
2017-07-22T00:20:52.436Z,62.60
2017-07-22T00:20:56.660Z,62.60
2017-07-22T00:21:02.728Z,62.60
2017-07-22T00:21:07.003Z,62.60
2017-07-22T00:21:15.407Z,62.60
2017-07-22T00:21:19.682Z,62.60
2017-07-22T00:21:24.766Z,62.60
2017-07-22T00:21:28.982Z,62.60
2017-07-22T00:21:33.727Z,62.60
2017-07-22T00:21:37.975Z,62.50
2017-07-22T00:21:42.571Z,62.50
2017-07-22T00:21:46.833Z,62.50
2017-07-22T00:21:51.885Z,62.60
2017-07-22T00:21:56.189Z,62.60
2017-07-22T00:22:01.287Z,62.70
2017-07-22T00:22:06.295Z,62.80
2017-07-22T00:22:11.494Z,62.80
2017-07-22T00:22:15.784Z,62.80
2017-07-22T00:22:20.028Z,62.80
2017-07-22T00:22:25.121Z,62.80
2017-07-22T00:22:29.361Z,62.80
2017-07-22T00:22:35.072Z,62.80
2017-07-22T00:22:40.080Z,62.80
2017-07-22T00:22:44.379Z,62.70
2017-07-22T00:22:49.529Z,62.70
2017-07-22T00:22:55.712Z,62.70
2017-07-22T00:23:00.051Z,62.70
2017-07-22T00:23:05.164Z,62.70
2017-07-22T00:23:10.580Z,63.00
2017-07-22T00:23:15.536Z,62.60
2017-07-22T00:23:20.567Z,63.30
2017-07-22T00:23:26.501Z,62.60
2017-07-22T00:23:31.452Z,62.60
2017-07-22T00:23:35.683Z,62.60
2017-07-22T00:23:40.739Z,62.60
2017-07-22T00:23:45.723Z,63.30
2017-07-22T00:23:49.967Z,62.60
2017-07-22T00:23:54.210Z,62.60
2017-07-22T00:23:58.447Z,62.60
2017-07-22T00:24:03.469Z,62.60
2017-07-22T00:24:07.730Z,62.60
2017-07-22T00:24:11.966Z,62.60
2017-07-22T00:24:16.255Z,62.60
2017-07-22T00:24:21.406Z,62.60
2017-07-22T00:24:26.507Z,62.60
2017-07-22T00:24:32.001Z,62.60
2017-07-22T00:24:36.233Z,62.60
2017-07-22T00:24:41.275Z,62.60
2017-07-22T00:24:45.560Z,62.60
2017-07-22T00:24:52.769Z,62.60
2017-07-22T00:24:58.068Z,62.60
2017-07-22T00:25:02.659Z,62.60
2017-07-22T00:25:09.373Z,62.60
2017-07-22T00:25:15.419Z,62.60
2017-07-22T00:25:20.185Z,62.60
2017-07-22T00:25:24.627Z,62.60
2017-07-22T00:25:29.063Z,62.60
2017-07-22T00:25:34.589Z,62.60
2017-07-22T00:25:39.622Z,62.50
2017-07-22T00:25:45.628Z,62.60
2017-07-22T00:25:50.211Z,62.60
2017-07-22T00:25:54.652Z,62.70
2017-07-22T00:26:00.556Z,62.70
2017-07-22T00:26:05.829Z,62.70
2017-07-22T00:26:10.526Z,62.70
2017-07-22T00:26:15.153Z,62.70
2017-07-22T00:26:21.308Z,62.70
2017-07-22T00:26:25.714Z,62.70
2017-07-22T00:26:30.478Z,62.70
2017-07-22T00:26:34.804Z,63.30
2017-07-22T00:26:39.435Z,62.70
2017-07-22T00:26:43.925Z,62.70
2017-07-22T00:26:49.136Z,63.10
2017-07-22T00:26:54.265Z,63.10
2017-07-22T00:26:58.726Z,62.70
2017-07-22T00:27:05.254Z,62.60
2017-07-22T00:27:11.257Z,62.60
2017-07-22T00:27:18.075Z,62.60
2017-07-22T00:27:23.432Z,62.60
2017-07-22T00:27:28.135Z,62.60
2017-07-22T00:27:32.575Z,62.60
2017-07-22T00:27:37.136Z,62.60
2017-07-22T00:27:41.598Z,62.70
2017-07-22T00:27:47.720Z,62.80
2017-07-22T00:27:53.612Z,62.80
2017-07-22T00:27:58.247Z,62.80
2017-07-22T00:28:04.082Z,62.80
2017-07-22T00:28:08.691Z,62.80
2017-07-22T00:28:13.167Z,62.70
2017-07-22T00:28:19.369Z,62.70
2017-07-22T00:28:23.796Z,62.70
2017-07-22T00:28:28.214Z,62.70
2017-07-22T00:28:33.396Z,62.70
2017-07-22T00:28:38.863Z,62.70
2017-07-22T00:28:43.379Z,62.60
2017-07-22T00:28:47.732Z,62.60
2017-07-22T00:28:52.175Z,62.60
2017-07-22T00:28:57.350Z,62.60
2017-07-22T00:29:02.417Z,62.60
2017-07-22T00:29:07.864Z,62.60
2017-07-22T00:29:13.437Z,62.60
2017-07-22T00:29:17.938Z,62.60
2017-07-22T00:29:23.023Z,62.60
2017-07-22T00:29:27.447Z,62.60
2017-07-22T00:29:32.184Z,62.70
2017-07-22T00:29:38.420Z,62.60
2017-07-22T00:29:43.811Z,62.60
2017-07-22T00:29:48.158Z,62.60
2017-07-22T00:29:52.763Z,62.60
2017-07-22T00:29:58.051Z,62.60
2017-07-22T00:30:03.475Z,62.70
2017-07-22T00:30:08.853Z,62.70
2017-07-22T00:30:13.829Z,62.70
2017-07-22T00:30:18.150Z,62.70
2017-07-22T00:30:23.369Z,62.70
2017-07-22T00:30:28.126Z,62.70
2017-07-22T00:30:33.814Z,62.70
2017-07-22T00:30:39.029Z,62.80
2017-07-22T00:30:43.568Z,62.70
2017-07-22T00:30:48.238Z,62.60
2017-07-22T00:30:52.626Z,62.60
2017-07-22T00:30:57.114Z,62.60
2017-07-22T00:31:02.276Z,62.70
2017-07-22T00:31:06.665Z,62.60
2017-07-22T00:31:11.161Z,62.60
2017-07-22T00:31:16.484Z,62.60
2017-07-22T00:31:23.132Z,62.60
2017-07-22T00:31:27.598Z,63.10
2017-07-22T00:31:31.998Z,62.70
2017-07-22T00:31:37.408Z,62.60
2017-07-22T00:31:41.940Z,62.60
2017-07-22T00:31:47.187Z,62.70
2017-07-22T00:31:51.754Z,62.70
2017-07-22T00:31:56.257Z,62.70
2017-07-22T00:32:00.630Z,62.60
2017-07-22T00:32:05.573Z,62.80
2017-07-22T00:32:10.348Z,62.60
2017-07-22T00:32:14.926Z,62.60
2017-07-22T00:32:19.302Z,62.60
2017-07-22T00:32:23.612Z,62.60
2017-07-22T00:32:28.191Z,62.60
2017-07-22T00:32:32.536Z,62.70
2017-07-22T00:32:37.225Z,62.70
2017-07-22T00:32:41.632Z,62.70
2017-07-22T00:32:46.952Z,62.70
2017-07-22T00:32:51.648Z,62.60
2017-07-22T00:32:56.109Z,62.60
2017-07-22T00:33:01.444Z,62.70
2017-07-22T00:33:05.949Z,62.70
2017-07-22T00:33:11.306Z,62.70
2017-07-22T00:33:15.620Z,62.60
2017-07-22T00:33:20.040Z,62.80
2017-07-22T00:33:25.780Z,62.80
2017-07-22T00:33:30.205Z,62.80
2017-07-22T00:33:34.614Z,62.90
2017-07-22T00:33:39.819Z,62.90
2017-07-22T00:33:44.356Z,62.80
2017-07-22T00:33:48.779Z,62.80
2017-07-22T00:33:53.234Z,62.80
2017-07-22T00:33:57.612Z,62.80
2017-07-22T00:34:02.238Z,62.80
2017-07-22T00:34:06.952Z,62.80
2017-07-22T00:34:11.509Z,62.80
2017-07-22T00:34:15.885Z,62.80
2017-07-22T00:34:20.932Z,62.80
2017-07-22T00:34:27.653Z,62.80
2017-07-22T00:34:33.185Z,63.00
2017-07-22T00:34:38.330Z,62.80
2017-07-22T00:34:42.879Z,62.80
2017-07-22T00:34:47.335Z,62.70
2017-07-22T00:34:51.944Z,62.80
2017-07-22T00:34:56.582Z,62.80
2017-07-22T00:35:01.125Z,63.40
2017-07-22T00:35:05.975Z,62.80
2017-07-22T00:35:10.559Z,62.80
2017-07-22T00:35:15.035Z,62.80
2017-07-22T00:35:20.282Z,62.80
2017-07-22T00:35:24.667Z,62.80
2017-07-22T00:35:29.169Z,62.80
2017-07-22T00:35:34.456Z,62.80
2017-07-22T00:35:39.583Z,62.80
2017-07-22T00:35:44.379Z,62.80
2017-07-22T00:35:48.874Z,62.80
2017-07-22T00:35:54.252Z,62.80
2017-07-22T00:35:58.836Z,62.80
2017-07-22T00:36:04.533Z,62.80
2017-07-22T00:36:09.290Z,62.90
2017-07-22T00:36:13.921Z,62.80
2017-07-22T00:36:18.288Z,62.80
2017-07-22T00:36:23.584Z,62.80
2017-07-22T00:36:29.111Z,62.80
2017-07-22T00:36:34.170Z,62.90
2017-07-22T00:36:39.540Z,62.90
2017-07-22T00:36:43.904Z,62.90
2017-07-22T00:36:49.140Z,62.80
2017-07-22T00:36:53.589Z,62.80
2017-07-22T00:36:58.747Z,62.80
2017-07-22T00:37:03.985Z,62.80
2017-07-22T00:37:08.393Z,62.90
2017-07-22T00:37:14.177Z,62.90
2017-07-22T00:37:18.929Z,62.90
2017-07-22T00:37:23.575Z,62.90
2017-07-22T00:37:29.155Z,62.90
2017-07-22T00:37:33.925Z,62.90
2017-07-22T00:37:38.527Z,62.90
2017-07-22T00:37:43.623Z,62.90
2017-07-22T00:37:48.029Z,62.90
2017-07-22T00:37:53.085Z,62.90
2017-07-22T00:37:57.824Z,62.90
2017-07-22T00:38:02.170Z,62.90
2017-07-22T00:38:06.766Z,62.90
2017-07-22T00:38:11.300Z,62.90
2017-07-22T00:38:15.829Z,62.90
2017-07-22T00:38:20.314Z,62.90
2017-07-22T00:38:24.798Z,62.90
2017-07-22T00:38:29.177Z,62.90
2017-07-22T00:38:33.617Z,62.90
2017-07-22T00:38:38.715Z,62.90
2017-07-22T00:38:44.225Z,62.90
2017-07-22T00:38:48.636Z,62.90
2017-07-22T00:38:52.971Z,62.90
2017-07-22T00:38:57.376Z,62.90
2017-07-22T00:39:02.519Z,62.90
2017-07-22T00:39:07.059Z,62.90
2017-07-22T00:39:11.557Z,62.90
2017-07-22T00:39:15.837Z,62.90
2017-07-22T00:39:20.204Z,62.90
2017-07-22T00:39:25.696Z,62.90
2017-07-22T00:39:30.121Z,62.90
2017-07-22T00:39:34.590Z,63.60
2017-07-22T00:39:39.600Z,63.00
2017-07-22T00:39:44.260Z,63.00
2017-07-22T00:39:49.893Z,63.00
2017-07-22T00:39:54.220Z,63.00
2017-07-22T00:39:58.768Z,63.00
2017-07-22T00:40:04.142Z,63.00
2017-07-22T00:40:09.263Z,63.00
2017-07-22T00:40:13.738Z,63.00
2017-07-22T00:40:18.112Z,63.00
2017-07-22T00:40:22.429Z,63.00
2017-07-22T00:40:27.396Z,63.00
2017-07-22T00:40:33.251Z,63.00
2017-07-22T00:40:37.680Z,63.00
2017-07-22T00:40:42.017Z,63.00
2017-07-22T00:40:46.440Z,63.00
2017-07-22T00:40:52.059Z,63.00
2017-07-22T00:40:57.535Z,63.00
2017-07-22T00:41:02.139Z,63.00
2017-07-22T00:41:06.605Z,63.00
2017-07-22T00:41:11.072Z,63.10
2017-07-22T00:41:15.534Z,63.10
2017-07-22T00:41:20.173Z,63.10
2017-07-22T00:41:24.614Z,63.10
2017-07-22T00:41:28.940Z,63.10
2017-07-22T00:41:33.497Z,63.10
2017-07-22T00:41:37.855Z,63.10
2017-07-22T00:41:43.041Z,63.10
2017-07-22T00:41:47.492Z,63.10
2017-07-22T00:41:51.920Z,63.00
2017-07-22T00:41:56.412Z,63.00
2017-07-22T00:42:00.822Z,63.00
2017-07-22T00:42:05.324Z,62.90
2017-07-22T00:42:10.664Z,62.90
2017-07-22T00:42:15.123Z,62.90
2017-07-22T00:42:19.514Z,62.90
2017-07-22T00:42:23.965Z,62.90
2017-07-22T00:42:28.930Z,63.40
2017-07-22T00:42:34.635Z,62.90
2017-07-22T00:42:39.942Z,62.90
2017-07-22T00:42:44.802Z,62.90
2017-07-22T00:42:49.355Z,62.90
2017-07-22T00:42:53.766Z,62.80
2017-07-22T00:42:59.120Z,62.90
2017-07-22T00:43:03.508Z,62.90
2017-07-22T00:43:07.902Z,62.90
2017-07-22T00:43:12.741Z,62.90
2017-07-22T00:43:17.117Z,62.90
2017-07-22T00:43:21.643Z,62.90
2017-07-22T00:43:27.147Z,63.00
2017-07-22T00:43:31.638Z,62.90
2017-07-22T00:43:36.231Z,62.90
2017-07-22T00:43:40.774Z,62.90
2017-07-22T00:43:45.124Z,62.90
2017-07-22T00:43:50.156Z,63.00
2017-07-22T00:43:55.519Z,62.90
2017-07-22T00:43:59.837Z,62.90
2017-07-22T00:44:04.183Z,62.90
2017-07-22T00:44:09.534Z,62.90
2017-07-22T00:44:14.743Z,62.90
2017-07-22T00:44:19.324Z,62.90
2017-07-22T00:44:23.677Z,63.00
2017-07-22T00:44:28.124Z,62.90
2017-07-22T00:44:33.466Z,62.90
2017-07-22T00:44:39.014Z,63.00
2017-07-22T00:44:43.620Z,62.90
2017-07-22T00:44:48.027Z,63.00
2017-07-22T00:44:52.464Z,62.90
2017-07-22T00:44:56.947Z,62.90
2017-07-22T00:45:01.568Z,62.80
2017-07-22T00:45:06.023Z,63.00
2017-07-22T00:45:10.678Z,63.00
2017-07-22T00:45:16.009Z,63.00
2017-07-22T00:45:20.524Z,62.90
2017-07-22T00:45:24.862Z,62.90
2017-07-22T00:45:29.288Z,62.90
2017-07-22T00:45:34.427Z,62.90
2017-07-22T00:45:39.031Z,62.90
2017-07-22T00:45:44.721Z,62.90
2017-07-22T00:45:49.045Z,62.90
2017-07-22T00:45:53.491Z,62.90
2017-07-22T00:45:57.931Z,62.80
2017-07-22T00:46:02.989Z,62.80
2017-07-22T00:46:07.407Z,62.80
2017-07-22T00:46:11.899Z,62.80
2017-07-22T00:46:16.324Z,62.90
2017-07-22T00:46:20.846Z,63.20
2017-07-22T00:46:25.229Z,62.90
2017-07-22T00:46:29.642Z,62.90
2017-07-22T00:46:33.857Z,62.90
2017-07-22T00:46:38.108Z,62.90
2017-07-22T00:46:42.367Z,62.90
2017-07-22T00:46:46.639Z,62.80
2017-07-22T00:46:50.868Z,62.80
2017-07-22T00:46:55.097Z,62.80
2017-07-22T00:46:59.382Z,62.80
2017-07-22T00:47:03.690Z,62.80
2017-07-22T00:47:07.974Z,62.80
2017-07-22T00:47:12.210Z,62.80
2017-07-22T00:47:16.462Z,62.80
2017-07-22T00:47:20.748Z,62.80
2017-07-22T00:47:24.991Z,62.80
2017-07-22T00:47:29.217Z,62.90
2017-07-22T00:47:33.472Z,62.90
2017-07-22T00:47:37.698Z,62.90
2017-07-22T00:47:42.671Z,62.90
2017-07-22T00:47:46.913Z,62.90
2017-07-22T00:47:51.955Z,62.90
2017-07-22T00:47:56.509Z,62.90
2017-07-22T00:48:00.727Z,62.90
2017-07-22T00:48:04.959Z,62.90
2017-07-22T00:48:09.308Z,62.80
2017-07-22T00:48:13.568Z,62.90
2017-07-22T00:48:17.852Z,62.90
2017-07-22T00:48:22.122Z,62.90
2017-07-22T00:48:26.658Z,62.90
2017-07-22T00:48:30.853Z,62.90
2017-07-22T00:48:35.104Z,62.90
2017-07-22T00:48:39.489Z,62.90
2017-07-22T00:48:43.717Z,62.90
2017-07-22T00:48:48.839Z,62.90
2017-07-22T00:48:53.067Z,63.00
2017-07-22T00:48:57.411Z,63.00
2017-07-22T00:49:01.629Z,63.00
2017-07-22T00:49:05.878Z,63.00
2017-07-22T00:49:10.142Z,63.00
2017-07-22T00:49:14.533Z,63.00
2017-07-22T00:49:19.389Z,63.00
2017-07-22T00:49:23.638Z,63.00
2017-07-22T00:49:27.950Z,63.00
2017-07-22T00:49:32.190Z,63.00
2017-07-22T00:49:36.483Z,62.90
2017-07-22T00:49:41.563Z,62.90
2017-07-22T00:49:45.909Z,62.90
2017-07-22T00:49:50.138Z,62.90
2017-07-22T00:49:54.420Z,62.90
2017-07-22T00:49:59.765Z,62.90
2017-07-22T00:50:04.481Z,62.90
2017-07-22T00:50:08.730Z,62.90
2017-07-22T00:50:12.981Z,62.90
2017-07-22T00:50:17.225Z,62.90
2017-07-22T00:50:21.482Z,62.90
2017-07-22T00:50:25.716Z,62.90
2017-07-22T00:50:29.979Z,62.80
2017-07-22T00:50:34.257Z,62.80
2017-07-22T00:50:38.530Z,62.80
2017-07-22T00:50:42.767Z,62.80
2017-07-22T00:50:47.022Z,62.80
2017-07-22T00:50:51.262Z,62.80
2017-07-22T00:50:55.554Z,62.80
2017-07-22T00:50:59.796Z,62.80
2017-07-22T00:51:04.061Z,62.80
2017-07-22T00:51:08.351Z,62.90
2017-07-22T00:51:12.620Z,62.90
2017-07-22T00:51:16.915Z,62.90
2017-07-22T00:51:21.134Z,62.90
2017-07-22T00:51:25.489Z,62.90
2017-07-22T00:51:29.716Z,62.90
2017-07-22T00:51:33.970Z,62.90
2017-07-22T00:51:38.216Z,62.90
2017-07-22T00:51:42.463Z,62.90
2017-07-22T00:51:46.704Z,62.90
2017-07-22T00:51:51.840Z,62.90
2017-07-22T00:51:56.959Z,62.90
2017-07-22T00:52:01.271Z,62.90
2017-07-22T00:52:05.504Z,62.90
2017-07-22T00:52:09.737Z,62.90
2017-07-22T00:52:14.090Z,62.90
2017-07-22T00:52:18.308Z,62.90
2017-07-22T00:52:22.595Z,62.90
2017-07-22T00:52:26.841Z,62.90
2017-07-22T00:52:31.120Z,63.00
2017-07-22T00:52:35.341Z,63.60
2017-07-22T00:52:40.188Z,63.00
2017-07-22T00:52:44.509Z,63.00
2017-07-22T00:52:48.736Z,63.00
2017-07-22T00:52:52.954Z,63.00
2017-07-22T00:52:57.192Z,63.00
2017-07-22T00:53:01.442Z,63.00
2017-07-22T00:53:05.677Z,63.00
2017-07-22T00:53:09.904Z,62.90
2017-07-22T00:53:14.224Z,62.90
2017-07-22T00:53:18.477Z,62.90
2017-07-22T00:53:22.713Z,62.90
2017-07-22T00:53:26.949Z,63.00
2017-07-22T00:53:31.979Z,63.50
2017-07-22T00:53:36.228Z,63.00
2017-07-22T00:53:40.483Z,63.00
2017-07-22T00:53:46.296Z,63.70
2017-07-22T00:53:50.636Z,63.00
2017-07-22T00:53:54.876Z,63.00
2017-07-22T00:53:59.148Z,63.10
2017-07-22T00:54:03.408Z,63.10
2017-07-22T00:54:07.654Z,63.20
2017-07-22T00:54:12.725Z,63.20
2017-07-22T00:54:17.015Z,63.20
2017-07-22T00:54:21.259Z,63.30
2017-07-22T00:54:25.492Z,63.30
2017-07-22T00:54:29.807Z,63.30
2017-07-22T00:54:34.056Z,63.30
2017-07-22T00:54:38.364Z,63.30
2017-07-22T00:54:42.604Z,63.30
2017-07-22T00:54:46.841Z,63.30
2017-07-22T00:54:52.629Z,63.40
2017-07-22T00:54:56.965Z,63.40
2017-07-22T00:55:01.218Z,63.40
2017-07-22T00:55:05.461Z,63.40
2017-07-22T00:55:09.714Z,63.40
2017-07-22T00:55:13.978Z,62.80
2017-07-22T00:55:18.259Z,63.40
2017-07-22T00:55:23.442Z,63.40
2017-07-22T00:55:27.714Z,63.30
2017-07-22T00:55:31.963Z,63.30
2017-07-22T00:55:36.989Z,63.40
2017-07-22T00:55:41.252Z,63.30
2017-07-22T00:55:45.645Z,63.30
2017-07-22T00:55:50.629Z,63.40
2017-07-22T00:55:55.628Z,64.00
2017-07-22T00:56:01.039Z,63.30
2017-07-22T00:56:05.275Z,63.40
2017-07-22T00:56:09.527Z,63.40
2017-07-22T00:56:13.772Z,63.20
2017-07-22T00:56:18.100Z,63.40
2017-07-22T00:56:22.326Z,63.40
2017-07-22T00:56:26.550Z,63.40
2017-07-22T00:56:31.346Z,63.40
2017-07-22T00:56:35.575Z,63.40
2017-07-22T00:56:40.611Z,63.50
2017-07-22T00:56:44.850Z,63.50
2017-07-22T00:56:49.101Z,63.50
2017-07-22T00:56:53.348Z,63.60
2017-07-22T00:56:57.579Z,63.60
2017-07-22T00:57:01.830Z,63.60
2017-07-22T00:57:06.060Z,63.60
2017-07-22T00:57:10.652Z,63.60
2017-07-22T00:57:14.937Z,63.60
2017-07-22T00:57:19.268Z,63.60
2017-07-22T00:57:23.510Z,63.60
2017-07-22T00:57:27.800Z,63.60
2017-07-22T00:57:32.041Z,63.60
2017-07-22T00:57:36.295Z,63.60
2017-07-22T00:57:40.537Z,63.10
2017-07-22T00:57:44.850Z,63.70
2017-07-22T00:57:49.238Z,63.70
2017-07-22T00:57:54.289Z,63.80
2017-07-22T00:57:58.552Z,63.80
2017-07-22T00:58:03.553Z,63.80
2017-07-22T00:58:07.804Z,63.80
2017-07-22T00:58:12.057Z,63.80
2017-07-22T00:58:16.311Z,63.80
2017-07-22T00:58:21.173Z,63.80
2017-07-22T00:58:25.409Z,63.80
2017-07-22T00:58:29.672Z,64.50
2017-07-22T00:58:34.707Z,64.60
2017-07-22T00:58:39.743Z,63.90
2017-07-22T00:58:43.996Z,63.90
2017-07-22T00:58:48.247Z,63.80
2017-07-22T00:58:52.518Z,63.90
2017-07-22T00:58:56.944Z,64.00
2017-07-22T00:59:01.176Z,64.00
2017-07-22T00:59:05.444Z,63.90
2017-07-22T00:59:09.693Z,64.00
2017-07-22T00:59:13.959Z,64.00
2017-07-22T00:59:18.199Z,64.00
2017-07-22T00:59:22.461Z,64.00
2017-07-22T00:59:26.725Z,64.00
2017-07-22T00:59:30.980Z,64.00
2017-07-22T00:59:35.201Z,64.00
2017-07-22T00:59:39.451Z,64.00
2017-07-22T00:59:43.677Z,64.00
2017-07-22T00:59:47.927Z,64.00
2017-07-22T00:59:52.930Z,64.10
2017-07-22T00:59:57.165Z,64.10
2017-07-22T01:00:01.524Z,64.10
2017-07-22T01:00:05.857Z,64.10
2017-07-22T01:00:10.084Z,64.10
2017-07-22T01:00:14.384Z,64.20
2017-07-22T01:00:18.643Z,64.20
2017-07-22T01:00:22.925Z,64.30
2017-07-22T01:00:28.085Z,64.50
2017-07-22T01:00:32.326Z,64.50
2017-07-22T01:00:36.556Z,64.50
2017-07-22T01:00:41.590Z,64.30
2017-07-22T01:00:46.595Z,65.10
2017-07-22T01:00:51.840Z,65.10
2017-07-22T01:00:56.096Z,65.00
2017-07-22T01:01:01.366Z,65.10
2017-07-22T01:01:06.714Z,65.20
2017-07-22T01:01:11.824Z,65.10
2017-07-22T01:01:16.099Z,65.30
2017-07-22T01:01:21.948Z,65.40
2017-07-22T01:01:26.251Z,65.40
2017-07-22T01:01:31.255Z,65.90
2017-07-22T01:01:36.427Z,66.10
2017-07-22T01:01:40.753Z,65.60
2017-07-22T01:01:44.992Z,65.70
2017-07-22T01:01:49.275Z,65.80
2017-07-22T01:01:54.290Z,65.90
2017-07-22T01:01:58.561Z,65.90
2017-07-22T01:02:02.796Z,66.00
2017-07-22T01:02:08.004Z,66.00
2017-07-22T01:02:12.253Z,66.00
2017-07-22T01:02:16.515Z,66.10
2017-07-22T01:02:20.802Z,66.20
2017-07-22T01:02:25.089Z,66.30
2017-07-22T01:02:29.370Z,66.40
2017-07-22T01:02:34.224Z,66.40
2017-07-22T01:02:40.360Z,66.50
2017-07-22T01:02:45.230Z,67.30
2017-07-22T01:02:49.479Z,66.50
2017-07-22T01:02:53.847Z,66.60
2017-07-22T01:02:58.237Z,66.60
2017-07-22T01:03:02.508Z,66.60
2017-07-22T01:03:07.527Z,66.90
2017-07-22T01:03:12.626Z,66.80
2017-07-22T01:03:16.859Z,66.80
2017-07-22T01:03:21.114Z,67.00
2017-07-22T01:03:26.044Z,67.10
2017-07-22T01:03:30.294Z,67.10
2017-07-22T01:03:35.416Z,67.30
2017-07-22T01:03:40.866Z,67.40
2017-07-22T01:03:45.328Z,67.60
2017-07-22T01:03:49.734Z,67.70
2017-07-22T01:03:54.273Z,67.90
2017-07-22T01:03:58.588Z,68.00
2017-07-22T01:04:02.956Z,68.20
2017-07-22T01:04:07.313Z,68.20
2017-07-22T01:04:11.675Z,68.30
2017-07-22T01:04:16.858Z,68.50
2017-07-22T01:04:23.239Z,68.50
2017-07-22T01:04:30.152Z,68.60
2017-07-22T01:04:35.590Z,68.60
2017-07-22T01:04:40.994Z,68.70
2017-07-22T01:04:46.968Z,68.80
2017-07-22T01:04:51.294Z,68.80
2017-07-22T01:04:56.407Z,69.00
2017-07-22T01:05:00.686Z,69.10
2017-07-22T01:05:04.971Z,69.10
2017-07-22T01:05:09.995Z,69.20
2017-07-22T01:05:14.881Z,69.30
2017-07-22T01:05:19.115Z,69.30
2017-07-22T01:05:24.122Z,69.40